Time;durP1;ratioP1;P1;durP2;ratioP2;P2;SDS_P1;SDS_P2;PMS_P1;PMS_P2;Temp;Humidity;BMP_temperature;BMP_pressure;BME280_temperature;BME280_humidity;BME280_pressure;Samples;Min_cycle;Max_cycle;Signal;HPM_P1;HPM_P2
2023/03/14 00:01:26;;;;;;;16.70;10.38;;;;;;;9.20;45.63;98329.50;4276354;33;32422;-89
2023/03/14 00:03:54;;;;;;;17.25;9.75;;;;;;;9.05;45.79;98327.69;4301130;33;33773;-91
2023/03/14 00:06:22;;;;;;;15.95;10.45;;;;;;;8.72;46.49;98328.38;4287022;33;34710;-92
2023/03/14 00:08:51;;;;;;;17.23;10.15;;;;;;;8.99;46.09;98319.94;4287590;33;34419;-93
2023/03/14 00:11:20;;;;;;;17.45;10.18;;;;;;;9.06;45.96;98303.59;4300193;33;33506;-91
2023/03/14 00:13:49;;;;;;;14.55;9.88;;;;;;;9.20;45.75;98304.50;4271817;33;33245;-92
2023/03/14 00:16:16;;;;;;;18.25;10.23;;;;;;;8.96;46.17;98300.09;4286535;33;33356;-91
2023/03/14 00:18:44;;;;;;;14.95;9.43;;;;;;;9.09;46.28;98297.56;4274070;33;33168;-85
2023/03/14 00:21:12;;;;;;;15.73;9.77;;;;;;;8.79;46.56;98299.16;4287090;33;33321;-87
2023/03/14 00:23:41;;;;;;;16.17;9.77;;;;;;;8.83;46.57;98289.69;4287295;33;33739;-90
2023/03/14 00:26:17;;;;;;;15.68;9.75;;;;;;;8.93;46.31;98278.53;4287147;33;32295;-89
2023/03/14 00:28:45;;;;;;;17.95;9.73;;;;;;;9.02;46.64;98282.03;4287511;33;33726;-88
2023/03/14 00:31:15;;;;;;;15.50;9.93;;;;;;;8.74;46.84;98277.56;4278978;33;33734;-91
2023/03/14 00:33:44;;;;;;;15.73;9.50;;;;;;;8.85;46.62;98269.88;4287474;33;34271;-89
2023/03/14 00:36:14;;;;;;;17.23;9.82;;;;;;;8.82;46.58;98260.38;4286751;33;34080;-92
2023/03/14 00:38:43;;;;;;;15.50;9.05;;;;;;;9.11;46.11;98263.09;4286196;33;32807;-90
2023/03/14 00:41:13;;;;;;;17.15;10.38;;;;;;;9.30;45.52;98263.19;4301005;33;33093;-91
2023/03/14 00:43:41;;;;;;;16.55;10.20;;;;;;;8.68;47.01;98244.81;4286499;33;34648;-91
2023/03/14 00:46:09;;;;;;;15.52;10.73;;;;;;;8.79;46.97;98252.62;4300169;33;34631;-90
2023/03/14 00:48:37;;;;;;;15.35;8.80;;;;;;;8.83;46.93;98266.44;4298727;33;34887;-87
2023/03/14 00:51:06;;;;;;;16.40;9.90;;;;;;;8.76;47.10;98253.47;4287521;33;33430;-91
2023/03/14 00:53:36;;;;;;;17.02;9.68;;;;;;;8.83;46.79;98238.88;4286663;33;33707;-90
2023/03/14 00:56:08;;;;;;;14.90;9.48;;;;;;;8.70;47.20;98243.09;4274165;33;32642;-90
2023/03/14 00:58:36;;;;;;;15.90;9.82;;;;;;;8.71;47.44;98249.13;4274942;33;32871;-90
2023/03/14 01:01:13;;;;;;;18.58;10.52;;;;;;;8.71;47.07;98250.00;4275622;33;32303;-90
2023/03/14 01:03:41;;;;;;;17.17;11.43;;;;;;;8.91;46.81;98254.41;4276460;33;33526;-91
2023/03/14 01:06:15;;;;;;;19.02;10.10;;;;;;;8.85;46.64;98256.94;4280916;33;34052;-90
2023/03/14 01:08:44;;;;;;;18.62;10.00;;;;;;;8.77;46.88;98247.44;4275201;33;32215;-90
2023/03/14 01:11:17;;;;;;;18.87;10.65;;;;;;;8.95;46.50;98243.22;4297294;33;33614;-90
2023/03/14 01:13:45;;;;;;;17.92;11.20;;;;;;;8.97;46.50;98241.50;4296504;33;34023;-88
2023/03/14 01:16:13;;;;;;;14.95;10.05;;;;;;;8.86;46.73;98232.81;4275125;33;32867;-88
2023/03/14 01:18:43;;;;;;;16.73;10.65;;;;;;;8.97;46.39;98228.56;4281943;33;33426;-90
2023/03/14 01:21:17;;;;;;;15.10;10.15;;;;;;;8.88;46.72;98225.97;4264881;33;33907;-89
2023/03/14 01:23:45;;;;;;;14.68;9.88;;;;;;;8.29;48.43;98223.00;4297649;33;34177;-90
2023/03/14 01:26:15;;;;;;;15.93;9.65;;;;;;;8.25;48.44;98223.84;4286377;33;33609;-89
2023/03/14 01:28:42;;;;;;;17.12;10.50;;;;;;;8.23;48.54;98207.47;4286907;33;32723;-89
2023/03/14 01:31:10;;;;;;;17.25;11.07;;;;;;;8.46;48.03;98189.56;4289120;33;33892;-91
2023/03/14 01:33:38;;;;;;;16.58;10.25;;;;;;;8.55;47.77;98183.59;4288498;33;33928;-91
2023/03/14 01:36:07;;;;;;;17.12;11.30;;;;;;;8.51;47.82;98174.09;4272150;33;32748;-89
2023/03/14 01:38:36;;;;;;;16.60;10.00;;;;;;;8.28;48.69;98177.38;4271337;33;33548;-90
2023/03/14 01:41:04;;;;;;;15.45;10.27;;;;;;;8.29;48.67;98175.66;4279286;33;33892;-91
2023/03/14 01:43:32;;;;;;;20.75;11.73;;;;;;;7.91;49.83;98168.53;4289491;33;34159;-92
2023/03/14 01:46:05;;;;;;;16.35;10.05;;;;;;;8.03;49.69;98163.47;4288864;33;34042;-91
2023/03/14 01:48:37;;;;;;;18.92;11.40;;;;;;;8.30;49.16;98161.91;4287464;33;33723;-90
2023/03/14 01:51:07;;;;;;;15.77;10.45;;;;;;;8.32;48.91;98149.00;4287969;33;32509;-90
2023/03/14 01:53:36;;;;;;;18.25;11.43;;;;;;;8.38;49.02;98143.91;4300335;33;34837;-89
2023/03/14 01:56:04;;;;;;;17.85;11.27;;;;;;;8.16;49.33;98145.47;4288374;33;33565;-91
2023/03/14 01:58:34;;;;;;;18.77;9.68;;;;;;;8.01;49.57;98128.16;4288533;33;33651;-90
2023/03/14 02:01:02;;;;;;;18.98;10.23;;;;;;;8.52;48.52;98129.31;4275626;33;33417;-90
2023/03/14 02:03:34;;;;;;;16.83;10.70;;;;;;;8.34;48.97;98134.41;4274224;33;32789;-90
2023/03/14 02:06:05;;;;;;;17.85;11.15;;;;;;;8.41;48.84;98131.88;4301203;33;34851;-92
2023/03/14 02:08:35;;;;;;;16.08;10.65;;;;;;;8.12;49.49;98129.09;4287604;33;34157;-91
2023/03/14 02:11:04;;;;;;;18.85;11.18;;;;;;;8.18;49.51;98126.56;4287399;33;33758;-90
2023/03/14 02:13:32;;;;;;;19.65;10.98;;;;;;;8.20;49.66;98122.25;4273072;33;33661;-88
2023/03/14 02:16:01;;;;;;;16.25;10.52;;;;;;;7.87;50.34;98119.47;4288316;33;34719;-89
2023/03/14 02:18:30;;;;;;;16.67;11.25;;;;;;;8.19;49.55;98124.84;4288648;33;32394;-88
2023/03/14 02:21:04;;;;;;;22.77;12.70;;;;;;;7.56;51.40;98119.25;4287801;33;33442;-91
2023/03/14 02:23:40;;;;;;;17.62;11.75;;;;;;;7.79;50.65;98109.97;4274678;33;34075;-89
2023/03/14 02:26:13;;;;;;;17.00;10.73;;;;;;;7.77;50.98;98106.53;4283751;33;33583;-90
2023/03/14 02:28:41;;;;;;;19.48;12.35;;;;;;;8.07;50.09;98102.41;4274116;33;32013;-91
2023/03/14 02:31:09;;;;;;;19.87;11.77;;;;;;;8.29;49.60;98099.06;4288506;33;34574;-91
2023/03/14 02:33:38;;;;;;;16.37;10.95;;;;;;;8.12;50.34;98107.59;4275430;33;32901;-89
2023/03/14 02:36:10;;;;;;;16.75;11.52;;;;;;;7.72;51.33;98108.19;4280017;33;33557;-90
2023/03/14 02:39:10;;;;;;;19.30;11.60;;;;;;;7.59;51.76;98085.75;4289288;33;33487;-85
2023/03/14 02:41:39;;;;;;;20.50;11.73;;;;;;;7.65;51.67;98092.66;4298887;33;33784;-91
2023/03/14 02:44:07;;;;;;;17.45;12.15;;;;;;;7.74;51.34;98072.94;4301401;33;34066;-90
2023/03/14 02:46:35;;;;;;;17.27;11.50;;;;;;;7.39;52.45;98095.06;4288332;33;33573;-90
2023/03/14 02:49:06;;;;;;;17.70;11.30;;;;;;;7.81;51.38;98086.75;4275489;33;33384;-90
2023/03/14 02:51:34;;;;;;;18.12;11.43;;;;;;;8.27;50.27;98085.28;4287816;33;34618;-90
2023/03/14 02:54:01;;;;;;;20.20;12.27;;;;;;;8.15;50.45;98081.81;4262368;33;34358;-89
2023/03/14 02:56:29;;;;;;;19.92;12.43;;;;;;;8.36;50.05;98062.94;4299233;33;33528;-87
2023/03/14 02:58:57;;;;;;;17.17;11.60;;;;;;;8.26;50.50;98072.37;4275959;33;33896;-92
2023/03/14 03:01:25;;;;;;;17.45;11.45;;;;;;;8.33;50.45;98073.25;4288327;33;34037;-90
2023/03/14 03:03:53;;;;;;;16.83;10.88;;;;;;;8.60;49.87;98065.66;4270209;33;33621;-91
2023/03/14 03:06:21;;;;;;;20.27;11.55;;;;;;;8.83;49.78;98073.47;4296701;33;34377;-91
2023/03/14 03:08:48;;;;;;;15.70;10.00;;;;;;;8.75;50.01;98063.09;4273381;33;32439;-91
2023/03/14 03:11:15;;;;;;;16.85;10.93;;;;;;;8.92;49.37;98047.63;4288629;33;33981;-92
2023/03/14 03:13:45;;;;;;;15.02;10.35;;;;;;;8.67;49.70;98054.44;4287992;33;34198;-90
2023/03/14 03:16:15;;;;;;;16.80;10.95;;;;;;;8.93;49.32;98066.56;4288583;33;34035;-91
2023/03/14 03:18:43;;;;;;;16.50;9.13;;;;;;;8.90;49.63;98051.03;4301970;33;34058;-91
2023/03/14 03:21:10;;;;;;;17.37;10.05;;;;;;;8.63;49.88;98051.88;4301711;33;33545;-89
2023/03/14 03:23:38;;;;;;;16.48;10.02;;;;;;;8.79;49.52;98040.72;4274377;33;32738;-89
2023/03/14 03:26:06;;;;;;;18.92;10.30;;;;;;;8.89;49.55;98059.66;4286529;33;33998;-89
2023/03/14 03:28:33;;;;;;;15.48;10.35;;;;;;;8.62;49.89;98035.50;4300259;33;33488;-89
2023/03/14 03:31:07;;;;;;;14.70;9.90;;;;;;;8.76;49.76;98022.62;4301119;33;33527;-86
2023/03/14 03:33:36;;;;;;;16.48;10.15;;;;;;;8.98;49.18;98019.19;4301762;33;34110;-89
2023/03/14 03:36:04;;;;;;;16.60;9.27;;;;;;;8.93;49.32;97994.19;4299952;33;33787;-93
2023/03/14 03:38:33;;;;;;;16.48;9.50;;;;;;;8.93;49.38;98007.97;4301647;33;33720;-91
2023/03/14 03:41:07;;;;;;;25.98;10.05;;;;;;;9.08;49.07;98014.03;4287774;33;33878;-92
2023/03/14 03:43:35;;;;;;;18.08;9.93;;;;;;;9.04;49.03;98000.22;4275182;33;34104;-88
2023/03/14 03:46:06;;;;;;;16.02;9.23;;;;;;;8.83;49.46;98002.81;4275000;33;34035;-91
2023/03/14 03:48:34;;;;;;;15.80;9.73;;;;;;;9.18;48.66;98000.25;4285819;33;33206;-92
2023/03/14 03:51:03;;;;;;;15.68;9.77;;;;;;;9.27;48.34;98006.25;4274014;33;32433;-92
2023/03/14 03:53:30;;;;;;;15.68;9.18;;;;;;;9.53;47.79;98012.28;4273597;33;34071;-86
2023/03/14 03:56:01;;;;;;;17.52;9.93;;;;;;;8.83;49.65;98020.91;4298128;33;33474;-88
2023/03/14 03:58:29;;;;;;;18.77;9.50;;;;;;;8.78;49.89;98026.06;4300094;33;33605;-87
2023/03/14 04:00:57;;;;;;;21.67;10.80;;;;;;;8.90;49.52;98030.38;4286439;33;33802;-91
2023/03/14 04:03:25;;;;;;;17.30;9.85;;;;;;;8.72;50.15;98024.34;4288734;33;33514;-92
2023/03/14 04:06:02;;;;;;;16.27;10.60;;;;;;;8.70;50.49;98032.94;4286010;33;32817;-88
2023/03/14 04:08:33;;;;;;;14.43;9.43;;;;;;;8.77;50.54;98051.03;4286719;33;35648;-86
2023/03/14 04:11:02;;;;;;;16.10;10.48;;;;;;;9.14;49.12;98030.41;4263401;33;33918;-93
2023/03/14 04:13:29;;;;;;;15.73;9.25;;;;;;;9.05;49.41;98032.97;4288738;33;35057;-90
2023/03/14 04:15:57;;;;;;;16.73;10.43;;;;;;;8.74;50.26;98037.25;4287829;33;34803;-90
2023/03/14 04:18:25;;;;;;;14.57;9.32;;;;;;;8.70;50.31;98031.22;4288769;33;32991;-89
2023/03/14 04:20:54;;;;;;;18.45;10.43;;;;;;;8.64;50.69;98031.22;4275866;33;33815;-92
2023/03/14 04:23:24;;;;;;;16.90;10.02;;;;;;;8.95;49.72;98039.88;4288446;33;34868;-90
2023/03/14 04:25:52;;;;;;;17.92;10.55;;;;;;;8.93;50.02;98038.12;4276918;33;34416;-92
2023/03/14 04:28:20;;;;;;;17.85;10.55;;;;;;;8.89;50.03;98036.41;4275806;33;33354;-88
2023/03/14 04:30:48;;;;;;;17.83;9.98;;;;;;;8.63;51.03;98046.69;4288298;33;33879;-90
2023/03/14 04:33:19;;;;;;;14.48;9.68;;;;;;;8.85;50.28;98026.94;4288757;33;34010;-92
2023/03/14 04:35:47;;;;;;;15.98;9.80;;;;;;;8.96;50.12;98038.16;4276462;33;33823;-90
2023/03/14 04:38:16;;;;;;;14.70;9.63;;;;;;;8.65;50.71;98045.00;4275557;33;32436;-91
2023/03/14 04:40:43;;;;;;;16.95;10.30;;;;;;;8.63;51.03;98036.34;4276323;33;33632;-92
2023/03/14 04:43:12;;;;;;;19.27;10.10;;;;;;;8.86;50.46;98031.22;4301000;33;33959;-87
2023/03/14 04:45:42;;;;;;;16.05;9.15;;;;;;;8.68;50.77;98027.78;4299688;33;32093;-92
2023/03/14 04:48:10;;;;;;;18.08;10.30;;;;;;;8.81;50.68;98014.88;4264346;33;33412;-92
2023/03/14 04:50:40;;;;;;;18.70;11.20;;;;;;;9.02;50.05;98020.94;4261997;33;33986;-91
2023/03/14 04:53:08;;;;;;;18.15;10.93;;;;;;;8.53;51.06;98018.25;4288897;33;33734;-90
2023/03/14 04:55:36;;;;;;;15.32;9.15;;;;;;;8.34;51.99;98021.63;4300698;33;34019;-91
2023/03/14 04:58:05;;;;;;;16.10;10.40;;;;;;;8.52;51.72;98018.25;4298673;33;33812;-88
2023/03/14 05:00:32;;;;;;;16.08;9.95;;;;;;;8.83;50.60;98015.75;4276683;33;32926;-91
2023/03/14 05:03:00;;;;;;;15.25;10.32;;;;;;;8.80;50.54;98014.00;4301638;33;34283;-88
2023/03/14 05:05:28;;;;;;;17.27;9.32;;;;;;;8.87;50.49;98028.66;4289573;33;32778;-90
2023/03/14 05:07:57;;;;;;;18.42;11.45;;;;;;;9.10;49.85;98020.06;4287607;33;33213;-92
2023/03/14 05:10:25;;;;;;;17.70;11.48;;;;;;;9.18;49.46;98005.41;4289139;33;32652;-91
2023/03/14 05:12:53;;;;;;;15.52;10.60;;;;;;;9.03;50.12;98016.63;4289828;33;34812;-91
2023/03/14 05:15:21;;;;;;;19.23;9.93;;;;;;;9.19;49.80;98023.50;4301133;33;33906;-89
2023/03/14 05:17:49;;;;;;;19.45;10.80;;;;;;;9.27;49.33;98010.56;4286642;33;33339;-93
2023/03/14 05:20:20;;;;;;;18.23;10.95;;;;;;;9.16;49.38;98004.53;4287701;33;34648;-90
2023/03/14 05:22:48;;;;;;;17.62;11.12;;;;;;;8.72;50.18;98016.59;4288310;33;34264;-90
2023/03/14 05:25:16;;;;;;;18.10;10.90;;;;;;;8.66;50.74;98006.22;4288350;33;32679;-89
2023/03/14 05:27:45;;;;;;;17.02;10.13;;;;;;;8.71;50.53;98006.22;4274141;33;33019;-93
2023/03/14 05:30:13;;;;;;;14.98;9.57;;;;;;;8.89;50.10;98014.00;4288943;33;34539;-90
2023/03/14 05:32:41;;;;;;;14.25;9.32;;;;;;;8.95;49.85;98008.00;4289562;33;34187;-87
2023/03/14 05:35:10;;;;;;;16.77;8.98;;;;;;;8.66;51.04;98020.88;4289041;33;32578;-82
2023/03/14 05:37:40;;;;;;;14.98;9.00;;;;;;;9.12;49.43;97992.47;4275639;33;33447;-85
2023/03/14 05:40:08;;;;;;;15.68;10.30;;;;;;;8.84;49.84;97991.63;4302773;33;33358;-92
2023/03/14 05:42:36;;;;;;;17.80;9.18;;;;;;;8.60;50.56;97998.47;4278644;33;34783;-89
2023/03/14 05:45:05;;;;;;;17.55;9.88;;;;;;;8.43;51.05;98007.91;4274500;33;34473;-90
2023/03/14 05:47:33;;;;;;;14.85;9.30;;;;;;;8.66;50.36;97998.47;4298843;33;33057;-87
2023/03/14 05:50:02;;;;;;;15.40;9.68;;;;;;;9.18;49.31;98001.09;4289872;33;33085;-85
2023/03/14 05:52:30;;;;;;;18.10;10.10;;;;;;;8.87;49.59;98009.72;4302578;33;34356;-86
2023/03/14 05:54:59;;;;;;;16.77;9.65;;;;;;;9.22;48.85;98012.31;4297064;33;33706;-84
2023/03/14 05:57:27;;;;;;;16.40;10.05;;;;;;;9.46;48.47;98007.09;4305469;33;33203;-86
2023/03/14 05:59:55;;;;;;;14.70;9.38;;;;;;;9.16;49.23;98018.31;4303133;33;33952;-89
2023/03/14 06:02:25;;;;;;;13.70;9.48;;;;;;;8.99;49.18;98007.13;4276907;33;34507;-89
2023/03/14 06:04:53;;;;;;;16.08;9.18;;;;;;;8.94;49.54;98012.31;4276704;33;32973;-85
2023/03/14 06:07:21;;;;;;;17.50;9.68;;;;;;;9.12;49.36;98010.56;4302905;33;34769;-86
2023/03/14 06:09:48;;;;;;;15.57;9.20;;;;;;;9.37;48.63;98001.09;4303267;33;33479;-90
2023/03/14 06:12:17;;;;;;;15.68;9.68;;;;;;;9.43;48.38;97995.87;4277230;33;33382;-89
2023/03/14 06:14:45;;;;;;;16.40;9.27;;;;;;;9.23;49.04;97999.34;4303075;33;33810;-84
2023/03/14 06:17:12;;;;;;;15.38;8.88;;;;;;;9.50;48.54;98003.63;4302702;33;33427;-89
2023/03/14 06:19:41;;;;;;;18.37;8.73;;;;;;;9.42;48.46;98000.19;4302853;33;34827;-89
2023/03/14 06:22:11;;;;;;;15.57;9.18;;;;;;;9.71;47.64;97988.94;4302458;33;34535;-91
2023/03/14 06:24:40;;;;;;;12.98;7.82;;;;;;;9.55;48.00;97985.53;4302780;33;33591;-89
2023/03/14 06:27:08;;;;;;;15.52;8.98;;;;;;;9.33;48.78;97974.37;4277350;33;32095;-85
2023/03/14 06:29:35;;;;;;;14.70;8.82;;;;;;;9.53;48.33;97976.03;4302204;33;34642;-91
2023/03/14 06:32:04;;;;;;;14.60;8.57;;;;;;;9.70;47.73;97975.16;4290037;33;34133;-89
2023/03/14 06:34:32;;;;;;;14.02;8.45;;;;;;;9.97;47.10;97968.16;4277554;33;33156;-84
2023/03/14 06:36:59;;;;;;;14.05;8.27;;;;;;;10.16;46.52;97964.59;4302303;33;33495;-89
2023/03/14 06:39:27;;;;;;;14.50;7.68;;;;;;;10.50;46.16;97964.47;4289461;33;33281;-85
2023/03/14 06:41:58;;;;;;;12.75;8.00;;;;;;;10.43;45.97;97962.78;4290137;33;33990;-88
2023/03/14 06:44:26;;;;;;;13.05;7.57;;;;;;;10.36;46.25;97966.25;4302450;33;34256;-85
2023/03/14 06:46:53;;;;;;;15.55;7.68;;;;;;;10.56;45.83;97974.75;4302307;33;33481;-91
2023/03/14 06:49:21;;;;;;;14.02;7.78;;;;;;;10.71;45.44;97974.66;4303783;33;33821;-95
2023/03/14 06:51:51;;;;;;;16.85;8.52;;;;;;;10.80;45.04;97978.94;4290560;33;33968;-87
2023/03/14 06:54:19;;;;;;;14.65;7.95;;;;;;;10.85;45.18;97992.72;4289434;33;33659;-87
2023/03/14 06:56:46;;;;;;;17.02;9.07;;;;;;;10.73;45.53;97982.44;4303598;33;33510;-91
2023/03/14 06:59:14;;;;;;;12.85;7.45;;;;;;;10.78;45.13;97990.19;4290142;33;33746;-90
2023/03/14 07:01:44;;;;;;;12.60;7.82;;;;;;;10.64;45.69;97987.69;4290092;33;33802;-85
2023/03/14 07:04:13;;;;;;;13.88;7.80;;;;;;;11.18;44.45;97991.59;4302097;33;33467;-84
2023/03/14 07:06:44;;;;;;;13.20;7.75;;;;;;;11.27;44.80;97998.44;4289868;33;33468;-95
2023/03/14 07:09:11;;;;;;;14.95;7.47;;;;;;;11.30;44.57;97984.59;4290867;33;33914;-91
2023/03/14 07:11:40;;;;;;;13.38;7.57;;;;;;;11.31;44.28;97981.09;4277896;33;33136;-85
2023/03/14 07:14:07;;;;;;;12.40;8.18;;;;;;;11.35;44.27;97982.81;4277349;33;33229;-85
2023/03/14 07:16:35;;;;;;;15.32;7.97;;;;;;;11.39;44.15;97987.94;4302492;33;33150;-89
2023/03/14 07:19:03;;;;;;;13.70;8.32;;;;;;;11.44;44.16;97987.94;4289884;33;33798;-91
2023/03/14 07:21:32;;;;;;;15.52;7.40;;;;;;;11.51;43.97;97999.06;4289562;33;34847;-90
2023/03/14 07:24:00;;;;;;;13.05;7.78;;;;;;;11.61;44.13;98000.72;4267746;33;33646;-93
2023/03/14 07:26:29;;;;;;;14.43;8.10;;;;;;;11.86;43.70;97993.56;4264268;33;34848;-92
2023/03/14 07:28:57;;;;;;;11.85;7.87;;;;;;;11.79;43.57;97989.28;4288799;33;33666;-85
2023/03/14 07:31:24;;;;;;;13.35;7.80;;;;;;;11.94;43.42;97986.56;4289805;33;35191;-84
2023/03/14 07:33:52;;;;;;;16.60;8.55;;;;;;;11.94;44.17;97983.97;4302429;33;34996;-86
2023/03/14 07:36:20;;;;;;;12.63;7.68;;;;;;;11.52;44.33;97983.50;4302919;33;33837;-84
2023/03/14 07:38:48;;;;;;;17.00;7.95;;;;;;;12.11;43.53;97975.94;4302652;33;33965;-93
2023/03/14 07:41:17;;;;;;;15.88;7.57;;;;;;;12.14;43.63;97978.50;4302829;33;33867;-93
2023/03/14 07:43:45;;;;;;;16.52;8.43;;;;;;;12.13;43.39;97964.66;4289309;33;33256;-87
2023/03/14 07:46:12;;;;;;;15.75;8.10;;;;;;;11.89;44.23;97975.34;4277038;33;32199;-93
2023/03/14 07:48:40;;;;;;;17.15;7.97;;;;;;;12.17;43.55;97981.94;4301894;33;34088;-92
2023/03/14 07:51:08;;;;;;;13.13;8.13;;;;;;;12.47;43.26;97972.00;4302476;33;34284;-88
2023/03/14 07:53:36;;;;;;;13.65;8.00;;;;;;;12.57;43.13;97978.78;4302736;33;33955;-84
2023/03/14 07:56:04;;;;;;;15.27;7.72;;;;;;;12.69;42.34;97974.28;4302459;33;33192;-92
2023/03/14 07:58:31;;;;;;;16.83;8.68;;;;;;;12.86;42.28;97952.34;4297298;33;33751;-91
2023/03/14 08:00:59;;;;;;;14.10;7.12;;;;;;;12.55;42.65;97949.38;4289562;33;34182;-93
2023/03/14 08:03:26;;;;;;;14.68;7.22;;;;;;;12.61;42.81;97944.09;4302558;33;33630;-87
2023/03/14 08:05:54;;;;;;;12.13;7.60;;;;;;;13.01;42.23;97933.03;4289472;33;33412;-92
2023/03/14 08:08:21;;;;;;;13.00;7.25;;;;;;;13.24;41.91;97939.62;4288877;33;33098;-93
2023/03/14 08:10:49;;;;;;;14.10;7.05;;;;;;;13.06;41.93;97932.94;4302456;33;34111;-92
2023/03/14 08:13:16;;;;;;;17.15;7.07;;;;;;;13.20;41.93;97927.53;4302406;33;34161;-92
2023/03/14 08:15:48;;;;;;;16.45;7.30;;;;;;;13.22;41.67;97928.34;4287223;33;33496;-84
2023/03/14 08:18:15;;;;;;;12.65;7.65;;;;;;;13.26;41.62;97932.62;4291562;33;33581;-93
2023/03/14 08:20:43;;;;;;;12.40;7.37;;;;;;;13.73;40.92;97923.09;4302548;33;35121;-91
2023/03/14 08:23:10;;;;;;;19.83;11.10;;;;;;;13.91;40.71;97925.31;4289630;33;33962;-91
2023/03/14 08:25:38;;;;;;;12.60;7.07;;;;;;;14.06;40.32;97925.00;4302096;33;33496;-86
2023/03/14 08:28:06;;;;;;;10.80;6.68;;;;;;;14.32;39.80;97921.00;4302020;33;33816;-84
2023/03/14 08:30:33;;;;;;;11.30;5.93;;;;;;;14.51;39.38;97911.88;4301939;33;34154;-85
2023/03/14 08:33:01;;;;;;;15.20;6.25;;;;;;;14.63;38.75;97912.50;4301819;33;34330;-87
2023/03/14 08:35:31;;;;;;;9.93;5.32;;;;;;;14.82;38.53;97917.22;4290219;33;33228;-95
2023/03/14 08:38:02;;;;;;;10.70;5.72;;;;;;;15.29;37.89;97916.91;4291085;33;33828;-92
2023/03/14 08:40:29;;;;;;;15.32;6.25;;;;;;;15.29;37.99;97917.75;4303981;33;34190;-92
2023/03/14 08:42:57;;;;;;;12.52;6.62;;;;;;;15.08;38.13;97924.41;4290308;33;34142;-94
2023/03/14 08:45:25;;;;;;;12.07;6.12;;;;;;;15.26;38.02;97906.53;4303895;33;33477;-93
2023/03/14 08:47:53;;;;;;;10.98;4.75;;;;;;;15.57;37.41;97902.22;4290371;33;33909;-82
2023/03/14 08:50:20;;;;;;;7.43;3.72;;;;;;;15.78;36.93;97873.81;4290319;33;34980;-85
2023/03/14 08:52:48;;;;;;;11.30;3.95;;;;;;;15.84;36.42;97880.63;4303780;33;33464;-93
2023/03/14 08:55:16;;;;;;;12.55;4.45;;;;;;;16.16;36.15;97885.75;4290758;33;32493;-85
2023/03/14 08:57:43;;;;;;;9.20;4.87;;;;;;;16.20;36.43;97873.44;4303665;33;33556;-92
2023/03/14 09:00:14;;;;;;;13.52;4.18;;;;;;;16.31;35.83;97866.13;4290355;33;33891;-89
2023/03/14 09:02:43;;;;;;;11.07;5.30;;;;;;;16.24;35.76;97869.81;4278576;33;33680;-87
2023/03/14 09:05:11;;;;;;;7.40;4.35;;;;;;;16.23;35.89;97855.03;4290820;33;33412;-93
2023/03/14 09:07:39;;;;;;;9.27;4.43;;;;;;;16.19;35.93;97849.06;4278502;33;33090;-84
2023/03/14 09:10:08;;;;;;;11.52;4.28;;;;;;;16.52;36.01;97856.75;4290514;33;33821;-84
2023/03/14 09:12:36;;;;;;;8.82;4.45;;;;;;;16.63;35.68;97851.16;4290338;33;34212;-84
2023/03/14 09:15:04;;;;;;;10.07;4.22;;;;;;;16.73;35.21;97860.41;4303436;33;33579;-85
2023/03/14 09:17:32;;;;;;;9.52;4.70;;;;;;;16.96;34.86;97841.34;4290363;33;34125;-84
2023/03/14 09:19:59;;;;;;;11.63;4.45;;;;;;;16.91;35.12;97854.59;4303517;33;34259;-85
2023/03/14 09:22:27;;;;;;;8.82;5.07;;;;;;;16.63;35.84;97852.03;4303469;33;33686;-92
2023/03/14 09:24:54;;;;;;;10.35;5.70;;;;;;;16.82;36.06;97840.97;4303629;33;34091;-93
2023/03/14 09:27:22;;;;;;;10.45;4.68;;;;;;;17.01;35.45;97835.06;4303375;33;33842;-89
2023/03/14 09:29:49;;;;;;;9.88;4.75;;;;;;;17.01;35.61;97834.22;4303360;33;34772;-90
2023/03/14 09:32:17;;;;;;;8.90;4.57;;;;;;;17.17;35.33;97839.78;4290422;33;33245;-86
2023/03/14 09:34:45;;;;;;;10.30;5.25;;;;;;;17.34;34.99;97826.91;4303641;33;33044;-84
2023/03/14 09:37:13;;;;;;;10.18;3.25;;;;;;;17.39;34.90;97809.28;4278001;33;33004;-87
2023/03/14 09:39:40;;;;;;;8.13;3.72;;;;;;;17.45;35.21;97809.03;4303447;33;35157;-93
2023/03/14 09:42:13;;;;;;;15.75;3.85;;;;;;;17.58;35.08;97821.69;4303277;33;33977;-89
2023/03/14 09:45:00;;;;;;;7.40;2.97;;;;;;;17.59;34.68;97800.69;4290274;33;33405;-92
2023/03/14 09:47:28;;;;;;;9.98;3.92;;;;;;;17.88;35.22;97802.25;4290393;33;33942;-95
2023/03/14 09:49:56;;;;;;;10.18;2.83;;;;;;;18.12;34.75;97803.06;4290325;33;34066;-93
2023/03/14 09:52:29;;;;;;;6.47;1.92;;;;;;;18.32;33.81;97806.66;4303438;33;32915;-84
2023/03/14 09:54:59;;;;;;;7.95;1.20;;;;;;;18.27;34.03;97793.72;4278225;33;31937;-89
2023/03/14 09:57:27;;;;;;;8.70;1.50;;;;;;;18.60;33.14;97798.50;4303426;33;34034;-92
2023/03/14 09:59:57;;;;;;;6.30;1.10;;;;;;;18.70;32.82;97792.81;4303448;33;33666;-91
2023/03/14 10:02:31;;;;;;;6.10;1.20;;;;;;;18.66;32.23;97769.38;4277856;33;33335;-87
2023/03/14 10:05:00;;;;;;;3.62;0.80;;;;;;;18.91;31.71;97764.81;4290198;33;33677;-93
2023/03/14 10:07:33;;;;;;;4.97;1.33;;;;;;;18.86;31.69;97772.03;4303097;33;33620;-86
2023/03/14 10:10:01;;;;;;;5.57;1.10;;;;;;;19.02;31.53;97766.13;4290277;33;34811;-89
2023/03/14 10:12:36;;;;;;;8.13;1.42;;;;;;;19.26;30.84;97765.03;4278155;33;33963;-95
2023/03/14 10:15:11;;;;;;;6.72;1.23;;;;;;;19.25;31.06;97768.59;4277950;33;34282;-91
2023/03/14 10:17:46;;;;;;;3.20;1.12;;;;;;;19.50;31.37;97762.22;4303214;33;33769;-89
2023/03/14 10:20:47;;;;;;;6.05;1.30;;;;;;;19.68;30.44;97761.41;4290381;33;33676;-85
2023/03/14 10:23:15;;;;;;;7.97;1.37;;;;;;;19.83;30.57;97744.91;4266733;33;33684;-85
2023/03/14 10:26:00;;;;;;;5.68;1.25;;;;;;;19.99;30.62;97746.81;4302918;33;33257;-93
2023/03/14 10:28:48;;;;;;;11.38;1.20;;;;;;;19.56;31.19;97756.69;4290491;33;34360;-93
2023/03/14 10:31:16;;;;;;;4.57;1.30;;;;;;;19.75;31.00;97757.56;4298046;33;33845;-96
2023/03/14 10:34:01;;;;;;;4.70;1.27;;;;;;;19.49;30.97;97760.53;4290273;33;34861;-89
2023/03/14 10:36:30;;;;;;;6.60;1.10;;;;;;;19.48;30.91;97770.19;4290101;33;33273;-94
2023/03/14 10:39:27;;;;;;;4.62;0.90;;;;;;;19.47;30.91;97772.88;4290258;33;34273;-91
2023/03/14 10:42:10;;;;;;;5.97;1.17;;;;;;;19.74;30.91;97761.13;4290494;33;34300;-93
2023/03/14 10:44:38;;;;;;;8.05;1.20;;;;;;;19.75;30.75;97749.69;4289596;33;33953;-84
2023/03/14 10:47:14;;;;;;;4.43;1.58;;;;;;;19.86;30.38;97739.53;4289773;33;33510;-85
2023/03/14 10:49:41;;;;;;;4.87;1.30;;;;;;;20.11;30.69;97741.81;4289573;33;33768;-84
2023/03/14 10:52:22;;;;;;;4.53;1.27;;;;;;;20.09;30.16;97729.66;4289947;33;34696;-89
2023/03/14 10:55:00;;;;;;;4.43;1.20;;;;;;;20.39;29.61;97728.16;4302160;33;33650;-89
2023/03/14 10:57:28;;;;;;;4.68;1.42;;;;;;;20.45;30.40;97731.41;4289133;33;32949;-86
2023/03/14 10:59:56;;;;;;;4.20;1.55;;;;;;;20.20;29.62;97716.00;4302741;33;33861;-94
2023/03/14 11:02:42;;;;;;;6.55;1.20;;;;;;;20.42;29.96;97714.84;4302445;33;34495;-85
2023/03/14 11:05:26;;;;;;;8.68;1.27;;;;;;;20.47;30.16;97693.56;4304500;33;34248;-93
2023/03/14 11:07:59;;;;;;;9.55;1.23;;;;;;;20.11;30.71;97706.75;4304960;33;33386;-93
2023/03/14 11:10:40;;;;;;;10.95;1.40;;;;;;;20.18;30.42;97697.63;4291737;33;33540;-92
2023/03/14 11:13:32;;;;;;;6.43;1.77;;;;;;;20.09;31.02;97687.56;4291084;33;33840;-88
2023/03/14 11:16:14;;;;;;;3.30;1.20;;;;;;;20.15;30.25;97684.63;4290575;33;34558;-82
2023/03/14 11:19:11;;;;;;;4.07;1.33;;;;;;;20.07;30.41;97681.53;4290862;33;33620;-91
2023/03/14 11:21:58;;;;;;;3.47;1.10;;;;;;;20.16;30.33;97675.81;4290410;33;34334;-91
2023/03/14 11:24:47;;;;;;;2.50;0.95;;;;;;;20.18;29.98;97676.59;4302829;33;33443;-89
2023/03/14 11:27:22;;;;;;;14.30;1.35;;;;;;;20.09;30.51;97677.06;4303617;33;33758;-93
2023/03/14 11:29:52;;;;;;;5.73;1.50;;;;;;;20.28;30.25;97664.69;4289660;33;33318;-93
2023/03/14 11:32:32;;;;;;;4.05;1.23;;;;;;;20.29;31.11;97668.16;4302971;33;33562;-80
2023/03/14 11:35:03;;;;;;;6.97;1.25;;;;;;;20.22;29.87;97664.97;4289953;33;34733;-85
2023/03/14 11:37:38;;;;;;;6.95;1.10;;;;;;;20.36;29.81;97662.50;4290007;33;33933;-88
2023/03/14 11:40:12;;;;;;;7.43;1.40;;;;;;;20.37;30.25;97643.16;4303086;33;34122;-92
2023/03/14 11:42:43;;;;;;;5.60;1.40;;;;;;;20.29;30.28;97645.31;4303766;33;33767;-88